Time,TemperatureF,DewpointF,PressureIn,WindDirection,WindDirectionDegrees,WindSpeedMPH,WindSpeedGustMPH,Humidity,HourlyPrecipIn,Conditions,Clouds,dailyrainin,SoftwareType,DateUTC
2013-01-20 00:36:00,47.3,39.7,30.18,North,0,0.0,0.0,75,0.00,,,0.00,WUHU216HW,2013-01-20 06:36:00,
2013-01-20 00:41:00,48.0,40.3,30.18,North,0,0.0,0.0,75,0.00,,,0.00,WUHU216HW,2013-01-20 06:41:00,
2013-01-20 00:46:00,48.0,40.3,30.18,North,0,0.0,0.0,75,0.00,,,0.00,WUHU216HW,2013-01-20 06:46:00,
2013-01-20 00:58:00,48.7,40.4,30.17,North,0,0.0,0.0,73,0.00,,,0.00,WUHU216HW,2013-01-20 06:58:00,
2013-01-20 01:03:00,48.7,40.4,30.17,North,0,0.0,0.0,73,0.00,,,0.00,WUHU216HW,2013-01-20 07:03:00,
2013-01-20 01:24:00,48.9,40.9,30.17,North,0,0.0,0.0,74,0.00,,,0.00,WUHU216HW,2013-01-20 07:24:00,
2013-01-20 01:29:00,48.9,40.9,30.17,North,0,0.0,0.0,74,0.00,,,0.00,WUHU216HW,2013-01-20 07:29:00,
2013-01-20 01:40:00,48.9,40.9,30.17,North,0,0.0,0.0,75,0.00,,,0.00,WUHU216HW,2013-01-20 07:40:00,
2013-01-20 02:18:00,49.1,42.8,30.17,North,0,0.0,0.0,79,0.00,,,0.00,WUHU216HW,2013-01-20 08:18:00,
2013-01-20 02:23:00,48.9,42.6,30.17,North,0,0.0,0.0,79,0.00,,,0.00,WUHU216HW,2013-01-20 08:23:00,
2013-01-20 02:28:00,48.9,42.6,30.17,North,0,0.0,0.0,80,0.00,,,0.00,WUHU216HW,2013-01-20 08:28:00,
2013-01-20 02:33:00,49.1,43.1,30.17,North,0,0.0,0.0,80,0.00,,,0.00,WUHU216HW,2013-01-20 08:33:00,
2013-01-20 02:38:00,49.2,43.3,30.16,North,0,0.0,0.0,80,0.00,,,0.00,WUHU216HW,2013-01-20 08:38:00,
2013-01-20 02:43:00,49.2,43.3,30.16,North,0,0.0,0.0,81,0.00,,,0.00,WUHU216HW,2013-01-20 08:43:00,
2013-01-20 02:48:00,49.6,44.0,30.16,North,0,0.0,0.0,81,0.00,,,0.00,WUHU216HW,2013-01-20 08:48:00,
2013-01-20 02:53:00,49.6,44.0,30.16,North,0,0.0,0.0,81,0.00,,,0.00,WUHU216HW,2013-01-20 08:53:00,
2013-01-20 02:58:00,49.6,44.0,30.16,North,0,0.0,0.0,81,0.00,,,0.00,WUHU216HW,2013-01-20 08:58:00,
2013-01-20 03:03:00,49.6,44.0,30.16,North,0,0.0,0.0,81,0.00,,,0.00,WUHU216HW,2013-01-20 09:03:00,
2013-01-20 03:29:00,49.6,44.0,30.15,North,0,0.0,0.0,82,0.00,,,0.00,WUHU216HW,2013-01-20 09:29:00,
2013-01-20 03:34:00,49.6,44.0,30.15,North,0,0.0,0.0,82,0.00,,,0.00,WUHU216HW,2013-01-20 09:34:00,
2013-01-20 03:46:00,49.8,44.4,30.16,North,0,0.0,0.0,83,0.00,,,0.00,WUHU216HW,2013-01-20 09:46:00,
2013-01-20 03:51:00,49.8,44.4,30.16,North,0,0.0,0.0,83,0.00,,,0.00,WUHU216HW,2013-01-20 09:51:00,
2013-01-20 03:58:00,49.1,44.1,30.16,North,0,0.0,0.0,83,0.00,,,0.00,WUHU216HW,2013-01-20 09:58:00,
2013-01-20 04:03:00,49.1,44.1,30.16,North,0,0.0,0.0,83,0.00,,,0.00,WUHU216HW,2013-01-20 10:03:00,
2013-01-20 04:10:00,48.9,44.2,30.15,North,0,0.0,0.0,84,0.00,,,0.00,WUHU216HW,2013-01-20 10:10:00,
2013-01-20 04:15:00,48.3,43.7,30.15,North,0,0.0,0.0,84,0.00,,,0.00,WUHU216HW,2013-01-20 10:15:00,
2013-01-20 04:20:00,48.3,43.7,30.15,North,0,0.0,0.0,84,0.00,,,0.00,WUHU216HW,2013-01-20 10:20:00,
2013-01-20 04:34:00,48.0,43.7,30.14,North,0,0.0,0.0,85,0.00,,,0.00,WUHU216HW,2013-01-20 10:34:00,
2013-01-20 04:39:00,48.0,43.7,30.14,North,0,0.0,0.0,85,0.00,,,0.00,WUHU216HW,2013-01-20 10:39:00,
2013-01-20 04:44:00,48.0,43.7,30.14,North,0,0.0,0.0,85,0.00,,,0.00,WUHU216HW,2013-01-20 10:44:00,
2013-01-20 05:16:00,45.1,40.9,30.14,North,0,0.0,0.0,85,0.00,,,0.00,WUHU216HW,2013-01-20 11:16:00,
2013-01-20 05:21:00,44.4,40.1,30.14,North,0,0.0,0.0,85,0.00,,,0.00,WUHU216HW,2013-01-20 11:21:00,
2013-01-20 05:26:00,43.8,39.6,30.14,North,0,0.0,0.0,85,0.00,,,0.00,WUHU216HW,2013-01-20 11:26:00,
2013-01-20 05:31:00,43.8,39.6,30.14,North,0,0.0,0.0,85,0.00,,,0.00,WUHU216HW,2013-01-20 11:31:00,
2013-01-20 05:47:00,42.4,38.5,30.14,North,0,0.0,0.0,86,0.00,,,0.00,WUHU216HW,2013-01-20 11:47:00,
2013-01-20 05:52:00,42.4,38.5,30.13,North,0,0.0,0.0,86,0.00,,,0.00,WUHU216HW,2013-01-20 11:52:00,
2013-01-20 05:57:00,42.6,39.0,30.13,North,0,0.0,0.0,87,0.00,,,0.00,WUHU216HW,2013-01-20 11:57:00,
2013-01-20 06:03:00,42.6,39.0,30.13,North,0,0.0,0.0,87,0.00,,,0.00,WUHU216HW,2013-01-20 12:03:00,
2013-01-20 06:12:00,42.8,39.1,30.13,North,0,0.0,0.0,87,0.00,,,0.00,WUHU216HW,2013-01-20 12:12:00,
2013-01-20 06:29:00,42.4,39.1,30.14,North,0,0.0,0.0,88,0.00,,,0.00,WUHU216HW,2013-01-20 12:29:00,
2013-01-20 06:34:00,42.4,39.1,30.14,North,0,0.0,0.0,88,0.00,,,0.00,WUHU216HW,2013-01-20 12:34:00,
2013-01-20 06:39:00,42.2,38.9,30.14,North,0,0.0,0.0,88,0.00,,,0.00,WUHU216HW,2013-01-20 12:39:00,
2013-01-20 06:44:00,42.4,39.1,30.14,North,0,0.0,0.0,88,0.00,,,0.00,WUHU216HW,2013-01-20 12:44:00,
2013-01-20 06:49:00,42.4,39.1,30.14,North,0,0.0,0.0,88,0.00,,,0.00,WUHU216HW,2013-01-20 12:49:00,
2013-01-20 07:20:00,43.8,40.5,30.16,North,0,0.0,0.0,88,0.00,,,0.00,WUHU216HW,2013-01-20 13:20:00,
2013-01-20 07:44:00,46.2,42.9,30.17,North,0,0.0,0.0,88,0.00,,,0.00,WUHU216HW,2013-01-20 13:44:00,
2013-01-20 07:49:00,46.0,42.7,30.17,North,0,0.0,0.0,88,0.00,,,0.00,WUHU216HW,2013-01-20 13:49:00,
2013-01-20 07:54:00,46.0,42.7,30.17,North,0,0.0,0.0,88,0.00,,,0.00,WUHU216HW,2013-01-20 13:54:00,
2013-01-20 07:59:00,46.0,42.7,30.17,North,0,0.0,0.0,89,0.00,,,0.00,WUHU216HW,2013-01-20 13:59:00,
2013-01-20 08:04:00,46.0,42.7,30.17,North,0,0.0,0.0,89,0.00,,,0.00,WUHU216HW,2013-01-20 14:04:00,
2013-01-20 08:09:00,46.0,42.7,30.17,North,0,0.0,0.0,89,0.00,,,0.00,WUHU216HW,2013-01-20 14:09:00,
2013-01-20 08:14:00,46.0,42.7,30.17,North,0,0.0,0.0,89,0.00,,,0.00,WUHU216HW,2013-01-20 14:14:00,
2013-01-20 08:23:00,46.9,43.9,30.17,North,0,0.0,0.0,89,0.00,,,0.00,WUHU216HW,2013-01-20 14:23:00,
2013-01-20 08:28:00,46.9,43.9,30.17,North,0,0.0,0.0,89,0.00,,,0.00,WUHU216HW,2013-01-20 14:28:00,
2013-01-20 08:34:00,47.8,44.8,30.18,North,0,0.0,0.0,89,0.00,,,0.00,WUHU216HW,2013-01-20 14:34:00,
2013-01-20 08:39:00,48.0,44.9,30.18,North,0,0.0,0.0,89,0.00,,,0.00,WUHU216HW,2013-01-20 14:39:00,
2013-01-20 08:44:00,48.5,45.5,30.18,North,0,0.0,0.0,89,0.00,,,0.00,WUHU216HW,2013-01-20 14:44:00,
2013-01-20 08:49:00,48.7,45.6,30.18,North,0,0.0,0.0,90,0.00,,,0.00,WUHU216HW,2013-01-20 14:49:00,
2013-01-20 08:54:00,48.7,45.9,30.18,North,0,0.0,0.0,90,0.00,,,0.00,WUHU216HW,2013-01-20 14:54:00,
2013-01-20 08:59:00,48.7,45.9,30.18,North,0,0.0,0.0,90,0.00,,,0.00,WUHU216HW,2013-01-20 14:59:00,
2013-01-20 09:10:00,49.2,46.4,30.19,North,0,0.0,0.0,90,0.00,,,0.00,WUHU216HW,2013-01-20 15:10:00,
2013-01-20 09:15:00,49.4,46.6,30.19,North,0,0.0,0.0,90,0.00,,,0.00,WUHU216HW,2013-01-20 15:15:00,
2013-01-20 09:20:00,50.0,47.1,30.19,North,0,0.0,0.0,90,0.00,,,0.00,WUHU216HW,2013-01-20 15:20:00,
2013-01-20 09:25:00,50.5,47.6,30.18,North,0,0.0,0.0,90,0.00,,,0.00,WUHU216HW,2013-01-20 15:25:00,
2013-01-20 09:30:00,51.0,48.2,30.19,North,0,0.0,0.0,90,0.00,,,0.00,WUHU216HW,2013-01-20 15:30:00,
2013-01-20 09:35:00,51.9,49.1,30.19,North,0,0.0,0.0,90,0.00,,,0.00,WUHU216HW,2013-01-20 15:35:00,
2013-01-20 09:40:00,51.9,49.1,30.19,North,0,0.0,0.0,90,0.00,,,0.00,WUHU216HW,2013-01-20 15:40:00,
2013-01-20 09:45:00,53.2,50.3,30.19,North,0,0.0,0.0,90,0.00,,,0.00,WUHU216HW,2013-01-20 15:45:00,
2013-01-20 09:50:00,54.6,51.4,30.19,North,0,0.0,0.0,89,0.00,,,0.00,WUHU216HW,2013-01-20 15:50:00,
2013-01-20 09:55:00,54.6,51.4,30.19,North,0,0.0,0.0,89,0.00,,,0.00,WUHU216HW,2013-01-20 15:55:00,
2013-01-20 10:09:00,57.9,50.7,30.19,North,0,0.0,0.0,77,0.00,,,0.00,WUHU216HW,2013-01-20 16:09:00,
2013-01-20 11:05:00,66.3,50.2,30.19,North,0,0.0,0.0,56,0.00,,,0.00,WUHU216HW,2013-01-20 17:05:00,
2013-01-20 11:34:00,69.4,50.0,30.18,North,0,0.0,0.0,50,0.00,,,0.00,WUHU216HW,2013-01-20 17:34:00,
2013-01-20 11:39:00,69.9,49.9,30.17,North,0,0.0,0.0,48,0.00,,,0.00,WUHU216HW,2013-01-20 17:39:00,
2013-01-20 11:44:00,69.9,49.9,30.17,North,0,0.0,0.0,48,0.00,,,0.00,WUHU216HW,2013-01-20 17:44:00,
2013-01-20 11:57:00,71.4,47.0,30.16,North,0,0.0,0.0,42,0.00,,,0.00,WUHU216HW,2013-01-20 17:57:00,
2013-01-20 12:02:00,71.4,47.0,30.16,North,0,0.0,0.0,42,0.00,,,0.00,WUHU216HW,2013-01-20 18:02:00,
2013-01-20 12:16:00,72.6,47.0,30.15,North,0,0.0,0.0,39,0.00,,,0.00,WUHU216HW,2013-01-20 18:16:00,
2013-01-20 12:21:00,72.3,45.1,30.14,North,0,0.0,0.0,38,0.00,,,0.00,WUHU216HW,2013-01-20 18:21:00,
2013-01-20 12:26:00,72.5,46.1,30.14,North,0,0.0,0.0,39,0.00,,,0.00,WUHU216HW,2013-01-20 18:26:00,
2013-01-20 12:31:00,72.5,46.1,30.14,North,0,0.0,0.0,39,0.00,,,0.00,WUHU216HW,2013-01-20 18:31:00,
2013-01-20 12:36:00,73.9,46.6,30.13,North,0,0.0,0.0,38,0.00,,,0.00,WUHU216HW,2013-01-20 18:36:00,
2013-01-20 12:41:00,73.7,45.7,30.13,North,0,0.0,0.0,37,0.00,,,0.00,WUHU216HW,2013-01-20 18:41:00,
2013-01-20 12:46:00,74.1,46.0,30.12,North,0,0.0,0.0,37,0.00,,,0.00,WUHU216HW,2013-01-20 18:46:00,
2013-01-20 12:51:00,74.8,46.6,30.12,North,0,0.0,0.0,37,0.00,,,0.00,WUHU216HW,2013-01-20 18:51:00,
2013-01-20 12:56:00,74.8,46.6,30.12,North,0,0.0,0.0,37,0.00,,,0.00,WUHU216HW,2013-01-20 18:56:00,
2013-01-20 13:08:00,74.8,45.9,30.10,North,0,0.0,0.0,36,0.00,,,0.00,WUHU216HW,2013-01-20 19:08:00,
2013-01-20 13:13:00,75.5,47.3,30.10,North,0,0.0,0.0,37,0.00,,,0.00,WUHU216HW,2013-01-20 19:13:00,
2013-01-20 13:18:00,75.5,45.0,30.10,North,0,0.0,0.0,34,0.00,,,0.00,WUHU216HW,2013-01-20 19:18:00,
2013-01-20 13:23:00,75.5,45.0,30.10,North,0,0.0,0.0,34,0.00,,,0.00,WUHU216HW,2013-01-20 19:23:00,
2013-01-20 13:32:00,74.4,44.8,30.09,North,0,0.0,0.0,35,0.00,,,0.00,WUHU216HW,2013-01-20 19:32:00,
2013-01-20 13:37:00,74.8,45.9,30.09,North,0,0.0,0.0,36,0.00,,,0.00,WUHU216HW,2013-01-20 19:37:00,
2013-01-20 13:42:00,74.8,45.9,30.09,North,0,0.0,0.0,36,0.00,,,0.00,WUHU216HW,2013-01-20 19:42:00,
2013-01-20 13:55:00,76.2,44.2,30.08,North,0,0.0,0.0,32,0.00,,,0.00,WUHU216HW,2013-01-20 19:55:00,
2013-01-20 14:00:00,76.8,44.6,30.08,North,0,0.0,0.0,32,0.00,,,0.00,WUHU216HW,2013-01-20 20:00:00,
2013-01-20 14:05:00,76.8,44.6,30.08,North,0,0.0,0.0,32,0.00,,,0.00,WUHU216HW,2013-01-20 20:05:00,
2013-01-20 14:24:00,75.7,45.2,30.07,North,0,0.0,0.0,34,0.00,,,0.00,WUHU216HW,2013-01-20 20:24:00,
2013-01-20 14:29:00,75.7,45.2,30.07,North,0,0.0,0.0,34,0.00,,,0.00,WUHU216HW,2013-01-20 20:29:00,
2013-01-20 14:34:00,74.8,44.4,30.07,North,0,0.0,0.0,34,0.00,,,0.00,WUHU216HW,2013-01-20 20:34:00,
2013-01-20 14:39:00,74.8,44.4,30.07,North,0,0.0,0.0,34,0.00,,,0.00,WUHU216HW,2013-01-20 20:39:00,
2013-01-20 15:16:00,74.1,44.5,30.05,North,0,0.0,0.0,35,0.00,,,0.00,WUHU216HW,2013-01-20 21:16:00,
2013-01-20 15:22:00,73.7,46.4,30.05,North,0,0.0,0.0,38,0.00,,,0.00,WUHU216HW,2013-01-20 21:22:00,
2013-01-20 15:27:00,74.4,46.3,30.05,North,0,0.0,0.0,37,0.00,,,0.00,WUHU216HW,2013-01-20 21:27:00,
2013-01-20 15:32:00,74.4,46.3,30.05,North,0,0.0,0.0,37,0.00,,,0.00,WUHU216HW,2013-01-20 21:32:00,
2013-01-20 15:37:00,74.1,46.0,30.05,North,0,0.0,0.0,37,0.00,,,0.00,WUHU216HW,2013-01-20 21:37:00,
2013-01-20 15:42:00,74.1,46.0,30.05,North,0,0.0,0.0,37,0.00,,,0.00,WUHU216HW,2013-01-20 21:42:00,
2013-01-20 16:01:00,72.1,45.7,30.05,North,0,0.0,0.0,39,0.00,,,0.00,WUHU216HW,2013-01-20 22:01:00,
2013-01-20 16:14:00,69.9,46.9,30.05,North,0,0.0,0.0,44,0.00,,,0.00,WUHU216HW,2013-01-20 22:14:00,
2013-01-20 16:34:00,68.1,45.9,30.05,North,0,0.0,0.0,45,0.00,,,0.00,WUHU216HW,2013-01-20 22:34:00,
2013-01-20 16:39:00,67.8,46.2,30.05,North,0,0.0,0.0,46,0.00,,,0.00,WUHU216HW,2013-01-20 22:39:00,
2013-01-20 16:44:00,67.8,46.2,30.05,North,0,0.0,0.0,45,0.00,,,0.00,WUHU216HW,2013-01-20 22:44:00,
2013-01-20 16:49:00,67.8,46.2,30.05,North,0,0.0,0.0,45,0.00,,,0.00,WUHU216HW,2013-01-20 22:49:00,
2013-01-20 17:51:00,63.6,45.6,30.05,North,0,0.0,0.0,52,0.00,,,0.00,WUHU216HW,2013-01-20 23:51:00,
2013-01-20 17:56:00,62.9,45.4,30.05,North,0,0.0,0.0,53,0.00,,,0.00,WUHU216HW,2013-01-20 23:56:00,
2013-01-20 18:01:00,62.9,45.4,30.05,North,0,0.0,0.0,53,0.00,,,0.00,WUHU216HW,2013-01-21 00:01:00,
2013-01-20 18:06:00,61.8,44.5,30.05,North,0,0.0,0.0,53,0.00,,,0.00,WUHU216HW,2013-01-21 00:06:00,
2013-01-20 18:11:00,61.5,44.6,30.05,North,0,0.0,0.0,54,0.00,,,0.00,WUHU216HW,2013-01-21 00:11:00,
2013-01-20 18:16:00,60.6,44.8,30.05,North,0,0.0,0.0,56,0.00,,,0.00,WUHU216HW,2013-01-21 00:16:00,
2013-01-20 18:21:00,60.4,44.6,30.05,North,0,0.0,0.0,56,0.00,,,0.00,WUHU216HW,2013-01-21 00:21:00,
2013-01-20 18:26:00,59.9,44.6,30.05,North,0,0.0,0.0,57,0.00,,,0.00,WUHU216HW,2013-01-21 00:26:00,
2013-01-20 18:31:00,59.0,44.2,30.05,North,0,0.0,0.0,58,0.00,,,0.00,WUHU216HW,2013-01-21 00:31:00,
2013-01-20 18:36:00,59.0,44.2,30.05,North,0,0.0,0.0,58,0.00,,,0.00,WUHU216HW,2013-01-21 00:36:00,
2013-01-20 18:51:00,58.6,45.2,30.06,North,0,0.0,0.0,61,0.00,,,0.00,WUHU216HW,2013-01-21 00:51:00,
2013-01-20 18:57:00,57.9,44.9,30.06,North,0,0.0,0.0,62,0.00,,,0.00,WUHU216HW,2013-01-21 00:57:00,
2013-01-20 19:02:00,57.7,45.2,30.06,North,0,0.0,0.0,63,0.00,,,0.00,WUHU216HW,2013-01-21 01:02:00,
2013-01-20 19:07:00,57.5,45.0,30.06,North,0,0.0,0.0,63,0.00,,,0.00,WUHU216HW,2013-01-21 01:07:00,
2013-01-20 19:12:00,57.5,45.0,30.06,North,0,0.0,0.0,63,0.00,,,0.00,WUHU216HW,2013-01-21 01:12:00,
2013-01-20 19:30:00,56.6,44.5,30.06,North,0,0.0,0.0,65,0.00,,,0.00,WUHU216HW,2013-01-21 01:30:00,
2013-01-20 20:13:00,54.6,43.9,30.07,North,0,0.0,0.0,67,0.00,,,0.00,WUHU216HW,2013-01-21 02:13:00,
2013-01-20 20:39:00,53.2,43.7,30.08,North,0,0.0,0.0,70,0.00,,,0.00,WUHU216HW,2013-01-21 02:39:00,
2013-01-20 20:54:00,53.0,43.9,30.08,North,0,0.0,0.0,71,0.00,,,0.00,WUHU216HW,2013-01-21 02:54:00,
2013-01-20 21:29:00,51.9,43.6,30.08,North,0,0.0,0.0,73,0.00,,,0.00,WUHU216HW,2013-01-21 03:29:00,
2013-01-20 22:25:00,53.0,44.9,30.10,North,0,0.0,0.0,74,0.00,,,0.00,WUHU216HW,2013-01-21 04:25:00,
2013-01-20 23:41:00,52.3,45.7,30.09,North,0,0.0,0.0,78,0.00,,,0.00,WUHU216HW,2013-01-21 05:41:00,
2013-01-20 23:46:00,52.3,45.7,30.09,North,0,0.0,0.0,78,0.00,,,0.00,WUHU216HW,2013-01-21 05:46:00,